sensor_id;sensor_type;location;lat;lon;timestamp;pressure;altitude;pressure_sealevel;temperature;humidity
38400;BME280;24180;42.676;23.320;2023-04-04T00:00:09;93246.88;;;7.28;100.00
38400;BME280;24180;42.676;23.320;2023-04-04T00:02:36;93225.94;;;7.07;100.00
38400;BME280;24180;42.676;23.320;2023-04-04T00:05:01;93280.81;;;7.40;100.00
38400;BME280;24180;42.676;23.320;2023-04-04T00:07:27;93292.75;;;7.49;100.00
38400;BME280;24180;42.676;23.320;2023-04-04T00:09:52;93237.69;;;7.18;100.00
38400;BME280;24180;42.676;23.320;2023-04-04T00:12:18;93296.13;;;7.49;100.00
38400;BME280;24180;42.676;23.320;2023-04-04T00:14:43;93291.94;;;7.48;100.00
38400;BME280;24180;42.676;23.320;2023-04-04T00:17:08;93256.22;;;7.29;100.00
38400;BME280;24180;42.676;23.320;2023-04-04T00:19:34;93271.66;;;7.45;100.00
38400;BME280;24180;42.676;23.320;2023-04-04T00:21:59;93273.44;;;7.45;100.00
38400;BME280;24180;42.676;23.320;2023-04-04T00:24:25;93315.44;;;7.70;100.00
38400;BME280;24180;42.676;23.320;2023-04-04T00:26:51;93306.91;;;7.61;100.00
38400;BME280;24180;42.676;23.320;2023-04-04T00:29:16;93292.75;;;7.57;100.00
38400;BME280;24180;42.676;23.320;2023-04-04T00:31:42;93246.53;;;7.31;100.00
38400;BME280;24180;42.676;23.320;2023-04-04T00:34:08;93279.69;;;7.59;100.00
38400;BME280;24180;42.676;23.320;2023-04-04T00:36:33;93261.66;;;7.42;100.00
38400;BME280;24180;42.676;23.320;2023-04-04T00:38:59;93224.31;;;7.22;100.00
38400;BME280;24180;42.676;23.320;2023-04-04T00:41:24;93278.09;;;7.66;100.00
38400;BME280;24180;42.676;23.320;2023-04-04T00:43:49;93267.00;;;7.57;100.00
38400;BME280;24180;42.676;23.320;2023-04-04T00:46:15;93263.94;;;7.62;100.00
38400;BME280;24180;42.676;23.320;2023-04-04T00:48:43;93268.75;;;7.57;100.00
38400;BME280;24180;42.676;23.320;2023-04-04T00:51:08;93212.75;;;7.34;100.00
38400;BME280;24180;42.676;23.320;2023-04-04T00:53:34;93269.09;;;7.62;100.00
38400;BME280;24180;42.676;23.320;2023-04-04T00:56:01;93197.63;;;7.31;100.00
38400;BME280;24180;42.676;23.320;2023-04-04T00:58:28;93260.38;;;7.71;100.00
38400;BME280;24180;42.676;23.320;2023-04-04T01:00:53;93239.00;;;7.54;100.00
38400;BME280;24180;42.676;23.320;2023-04-04T01:03:19;93207.13;;;7.31;100.00
38400;BME280;24180;42.676;23.320;2023-04-04T01:05:44;93251.69;;;7.72;100.00
38400;BME280;24180;42.676;23.320;2023-04-04T01:08:10;93123.31;;;7.04;100.00
38400;BME280;24180;42.676;23.320;2023-04-04T01:10:36;93223.19;;;7.57;100.00
38400;BME280;24180;42.676;23.320;2023-04-04T01:13:03;93253.75;;;7.76;100.00
38400;BME280;24180;42.676;23.320;2023-04-04T01:15:29;93257.50;;;7.66;100.00
38400;BME280;24180;42.676;23.320;2023-04-04T01:17:57;93275.66;;;7.80;100.00
38400;BME280;24180;42.676;23.320;2023-04-04T01:20:25;93228.03;;;7.60;100.00
38400;BME280;24180;42.676;23.320;2023-04-04T01:22:54;93134.28;;;6.98;100.00
38400;BME280;24180;42.676;23.320;2023-04-04T01:25:29;93279.53;;;7.84;100.00
38400;BME280;24180;42.676;23.320;2023-04-04T01:27:59;93259.41;;;7.72;100.00
38400;BME280;24180;42.676;23.320;2023-04-04T01:30:27;93266.97;;;7.81;100.00
38400;BME280;24180;42.676;23.320;2023-04-04T01:33:02;93279.19;;;7.79;100.00
38400;BME280;24180;42.676;23.320;2023-04-04T01:35:52;93277.44;;;7.80;100.00
38400;BME280;24180;42.676;23.320;2023-04-04T01:41:23;93270.19;;;7.67;100.00
38400;BME280;24180;42.676;23.320;2023-04-04T01:43:49;93254.44;;;7.70;100.00
38400;BME280;24180;42.676;23.320;2023-04-04T01:46:16;93254.91;;;7.74;100.00
38400;BME280;24180;42.676;23.320;2023-04-04T01:48:42;93192.47;;;7.31;100.00
38400;BME280;24180;42.676;23.320;2023-04-04T01:51:07;93187.66;;;7.44;100.00
38400;BME280;24180;42.676;23.320;2023-04-04T01:53:33;93086.03;;;6.84;100.00
38400;BME280;24180;42.676;23.320;2023-04-04T01:55:58;93187.97;;;7.49;100.00
38400;BME280;24180;42.676;23.320;2023-04-04T01:58:24;93236.22;;;7.72;100.00
38400;BME280;24180;42.676;23.320;2023-04-04T02:00:50;93232.22;;;7.61;100.00
38400;BME280;24180;42.676;23.320;2023-04-04T02:03:15;93201.16;;;7.38;100.00
38400;BME280;24180;42.676;23.320;2023-04-04T02:05:40;93124.00;;;6.90;100.00
38400;BME280;24180;42.676;23.320;2023-04-04T02:08:06;93215.50;;;7.41;100.00
38400;BME280;24180;42.676;23.320;2023-04-04T02:10:31;93184.75;;;7.23;100.00
38400;BME280;24180;42.676;23.320;2023-04-04T02:12:57;93241.56;;;7.54;100.00
38400;BME280;24180;42.676;23.320;2023-04-04T02:15:23;93225.31;;;7.45;100.00
38400;BME280;24180;42.676;23.320;2023-04-04T02:17:49;93210.16;;;7.42;100.00
38400;BME280;24180;42.676;23.320;2023-04-04T02:20:15;93228.34;;;7.57;100.00
38400;BME280;24180;42.676;23.320;2023-04-04T02:22:49;93217.25;;;7.57;100.00
38400;BME280;24180;42.676;23.320;2023-04-04T02:25:14;93201.66;;;7.50;100.00
38400;BME280;24180;42.676;23.320;2023-04-04T02:27:40;93204.84;;;7.44;100.00
38400;BME280;24180;42.676;23.320;2023-04-04T02:30:06;93222.41;;;7.57;100.00
38400;BME280;24180;42.676;23.320;2023-04-04T02:32:31;93154.06;;;7.14;100.00
38400;BME280;24180;42.676;23.320;2023-04-04T02:34:57;93201.81;;;7.40;100.00
38400;BME280;24180;42.676;23.320;2023-04-04T02:37:22;93170.59;;;7.11;100.00
38400;BME280;24180;42.676;23.320;2023-04-04T02:39:47;93211.44;;;7.30;100.00
38400;BME280;24180;42.676;23.320;2023-04-04T02:42:13;93139.41;;;6.82;100.00
38400;BME280;24180;42.676;23.320;2023-04-04T02:44:38;93213.53;;;7.27;100.00
38400;BME280;24180;42.676;23.320;2023-04-04T02:47:05;93233.84;;;7.30;100.00
38400;BME280;24180;42.676;23.320;2023-04-04T02:49:30;93169.47;;;6.81;100.00
38400;BME280;24180;42.676;23.320;2023-04-04T02:51:56;93222.88;;;7.20;100.00
38400;BME280;24180;42.676;23.320;2023-04-04T02:54:22;93186.69;;;7.05;100.00
38400;BME280;24180;42.676;23.320;2023-04-04T02:56:47;93229.31;;;7.32;100.00
38400;BME280;24180;42.676;23.320;2023-04-04T02:59:12;93232.38;;;7.35;100.00
38400;BME280;24180;42.676;23.320;2023-04-04T03:01:38;93172.88;;;6.98;100.00
38400;BME280;24180;42.676;23.320;2023-04-04T03:04:03;93231.28;;;7.30;100.00
38400;BME280;24180;42.676;23.320;2023-04-04T03:06:32;93239.28;;;7.19;100.00
38400;BME280;24180;42.676;23.320;2023-04-04T03:08:58;93178.81;;;6.98;100.00
38400;BME280;24180;42.676;23.320;2023-04-04T03:11:23;93167.72;;;6.90;100.00
38400;BME280;24180;42.676;23.320;2023-04-04T03:13:49;93242.06;;;7.41;100.00
38400;BME280;24180;42.676;23.320;2023-04-04T03:16:19;93234.81;;;7.37;100.00
38400;BME280;24180;42.676;23.320;2023-04-04T03:18:44;93190.88;;;7.06;100.00
38400;BME280;24180;42.676;23.320;2023-04-04T03:21:11;93250.41;;;7.51;100.00
38400;BME280;24180;42.676;23.320;2023-04-04T03:23:36;93238.00;;;7.47;100.00
38400;BME280;24180;42.676;23.320;2023-04-04T03:26:02;93228.03;;;7.44;100.00
38400;BME280;24180;42.676;23.320;2023-04-04T03:28:28;93182.50;;;7.12;100.00
38400;BME280;24180;42.676;23.320;2023-04-04T03:30:53;93234.31;;;7.41;100.00
38400;BME280;24180;42.676;23.320;2023-04-04T03:33:19;93181.69;;;7.12;100.00
38400;BME280;24180;42.676;23.320;2023-04-04T03:35:45;93180.09;;;7.11;100.00
38400;BME280;24180;42.676;23.320;2023-04-04T03:38:12;93244.28;;;7.61;100.00
38400;BME280;24180;42.676;23.320;2023-04-04T03:40:37;93214.34;;;7.43;100.00
38400;BME280;24180;42.676;23.320;2023-04-04T03:43:06;93241.22;;;7.57;100.00
38400;BME280;24180;42.676;23.320;2023-04-04T03:45:32;93238.19;;;7.62;100.00
38400;BME280;24180;42.676;23.320;2023-04-04T03:47:58;93246.38;;;7.57;100.00
38400;BME280;24180;42.676;23.320;2023-04-04T03:50:24;93246.03;;;7.68;100.00
38400;BME280;24180;42.676;23.320;2023-04-04T03:52:49;93205.69;;;7.36;100.00
38400;BME280;24180;42.676;23.320;2023-04-04T03:55:15;93244.28;;;7.61;100.00
38400;BME280;24180;42.676;23.320;2023-04-04T03:57:40;93202.94;;;7.22;100.00
38400;BME280;24180;42.676;23.320;2023-04-04T04:00:07;93183.31;;;7.13;100.00
38400;BME280;24180;42.676;23.320;2023-04-04T04:02:32;93198.75;;;7.29;100.00
38400;BME280;24180;42.676;23.320;2023-04-04T04:04:58;93232.38;;;7.60;100.00
38400;BME280;24180;42.676;23.320;2023-04-04T04:07:23;93175.75;;;7.27;100.00
38400;BME280;24180;42.676;23.320;2023-04-04T04:09:48;93224.66;;;7.51;100.00
38400;BME280;24180;42.676;23.320;2023-04-04T04:12:14;93184.75;;;7.15;100.00
38400;BME280;24180;42.676;23.320;2023-04-04T04:14:39;93197.00;;;6.97;100.00
38400;BME280;24180;42.676;23.320;2023-04-04T04:17:05;93109.97;;;6.44;100.00
38400;BME280;24180;42.676;23.320;2023-04-04T04:19:30;93221.44;;;7.01;100.00
38400;BME280;24180;42.676;23.320;2023-04-04T04:21:56;93156.44;;;6.75;100.00
38400;BME280;24180;42.676;23.320;2023-04-04T04:24:21;93197.63;;;6.91;100.00
38400;BME280;24180;42.676;23.320;2023-04-04T04:26:46;93246.84;;;7.04;100.00
38400;BME280;24180;42.676;23.320;2023-04-04T04:29:12;93210.81;;;6.88;100.00
38400;BME280;24180;42.676;23.320;2023-04-04T04:31:37;93267.31;;;7.22;100.00
38400;BME280;24180;42.676;23.320;2023-04-04T04:34:05;93250.06;;;7.22;100.00
38400;BME280;24180;42.676;23.320;2023-04-04T04:36:31;93258.59;;;7.31;100.00
38400;BME280;24180;42.676;23.320;2023-04-04T04:38:56;93252.97;;;7.27;100.00
38400;BME280;24180;42.676;23.320;2023-04-04T04:41:22;93256.69;;;7.33;100.00
38400;BME280;24180;42.676;23.320;2023-04-04T04:43:47;93209.53;;;7.08;100.00
38400;BME280;24180;42.676;23.320;2023-04-04T04:46:12;93269.09;;;7.45;100.00
38400;BME280;24180;42.676;23.320;2023-04-04T04:48:39;93278.72;;;7.51;100.00
38400;BME280;24180;42.676;23.320;2023-04-04T04:51:04;93284.38;;;7.55;100.00
38400;BME280;24180;42.676;23.320;2023-04-04T04:53:30;93269.38;;;7.50;100.00
38400;BME280;24180;42.676;23.320;2023-04-04T04:55:55;93224.66;;;7.19;100.00
38400;BME280;24180;42.676;23.320;2023-04-04T04:58:21;93268.59;;;7.58;100.00
38400;BME280;24180;42.676;23.320;2023-04-04T05:00:48;93283.25;;;7.66;100.00
38400;BME280;24180;42.676;23.320;2023-04-04T05:03:14;93277.78;;;7.52;100.00
38400;BME280;24180;42.676;23.320;2023-04-04T05:05:41;93272.28;;;7.47;100.00
38400;BME280;24180;42.676;23.320;2023-04-04T05:08:07;93282.59;;;7.56;100.00
38400;BME280;24180;42.676;23.320;2023-04-04T05:10:32;93293.22;;;7.61;100.00
38400;BME280;24180;42.676;23.320;2023-04-04T05:12:58;93290.00;;;7.67;100.00
38400;BME280;24180;42.676;23.320;2023-04-04T05:15:42;93282.44;;;7.65;100.00
38400;BME280;24180;42.676;23.320;2023-04-04T05:18:07;93295.63;;;7.78;100.00
38400;BME280;24180;42.676;23.320;2023-04-04T05:20:34;93254.25;;;7.64;100.00
38400;BME280;24180;42.676;23.320;2023-04-04T05:22:59;93300.63;;;7.88;100.00
38400;BME280;24180;42.676;23.320;2023-04-04T05:25:24;93303.84;;;7.90;100.00
38400;BME280;24180;42.676;23.320;2023-04-04T05:27:51;93265.69;;;7.77;100.00
38400;BME280;24180;42.676;23.320;2023-04-04T05:30:17;93259.88;;;7.67;100.00
38400;BME280;24180;42.676;23.320;2023-04-04T05:32:45;93288.22;;;7.83;100.00
38400;BME280;24180;42.676;23.320;2023-04-04T05:35:11;93264.06;;;7.76;100.00
38400;BME280;24180;42.676;23.320;2023-04-04T05:37:40;93308.81;;;7.99;100.00
38400;BME280;24180;42.676;23.320;2023-04-04T05:40:06;93297.38;;;8.10;100.00
38400;BME280;24180;42.676;23.320;2023-04-04T05:42:32;93250.50;;;7.90;100.00
38400;BME280;24180;42.676;23.320;2023-04-04T05:44:57;93258.25;;;7.82;100.00
38400;BME280;24180;42.676;23.320;2023-04-04T05:47:23;93300.59;;;8.12;100.00
38400;BME280;24180;42.676;23.320;2023-04-04T05:49:48;93307.66;;;8.34;100.00
38400;BME280;24180;42.676;23.320;2023-04-04T05:52:13;93260.66;;;8.00;100.00
38400;BME280;24180;42.676;23.320;2023-04-04T05:54:40;93298.31;;;8.17;100.00
38400;BME280;24180;42.676;23.320;2023-04-04T05:57:05;93267.91;;;7.96;100.00
38400;BME280;24180;42.676;23.320;2023-04-04T05:59:31;93316.59;;;8.55;100.00
38400;BME280;24180;42.676;23.320;2023-04-04T06:01:56;93275.56;;;8.37;100.00
38400;BME280;24180;42.676;23.320;2023-04-04T06:04:21;93318.97;;;8.72;100.00
38400;BME280;24180;42.676;23.320;2023-04-04T06:06:47;93312.63;;;8.83;100.00
38400;BME280;24180;42.676;23.320;2023-04-04T06:09:12;93269.63;;;8.67;100.00
38400;BME280;24180;42.676;23.320;2023-04-04T06:11:38;93277.53;;;8.74;100.00
38400;BME280;24180;42.676;23.320;2023-04-04T06:14:03;93288.94;;;8.40;100.00
38400;BME280;24180;42.676;23.320;2023-04-04T06:16:28;93300.69;;;8.43;100.00
38400;BME280;24180;42.676;23.320;2023-04-04T06:18:55;93325.03;;;8.87;100.00
38400;BME280;24180;42.676;23.320;2023-04-04T06:21:20;93298.69;;;8.69;100.00
38400;BME280;24180;42.676;23.320;2023-04-04T06:23:46;93327.47;;;8.89;100.00
38400;BME280;24180;42.676;23.320;2023-04-04T06:26:11;93324.13;;;9.11;100.00
38400;BME280;24180;42.676;23.320;2023-04-04T06:28:37;93335.41;;;9.18;100.00
38400;BME280;24180;42.676;23.320;2023-04-04T06:31:04;93338.16;;;9.39;100.00
38400;BME280;24180;42.676;23.320;2023-04-04T06:33:31;93321.50;;;9.19;100.00
38400;BME280;24180;42.676;23.320;2023-04-04T06:35:56;93317.75;;;8.91;100.00
38400;BME280;24180;42.676;23.320;2023-04-04T06:38:21;93384.50;;;7.98;100.00
38400;BME280;24180;42.676;23.320;2023-04-04T06:40:47;93375.91;;;7.25;100.00
38400;BME280;24180;42.676;23.320;2023-04-04T06:43:12;93396.66;;;6.82;100.00
38400;BME280;24180;42.676;23.320;2023-04-04T06:45:38;93382.72;;;6.07;100.00
38400;BME280;24180;42.676;23.320;2023-04-04T06:48:04;93432.28;;;6.17;100.00
38400;BME280;24180;42.676;23.320;2023-04-04T06:50:30;93438.53;;;5.97;100.00
38400;BME280;24180;42.676;23.320;2023-04-04T06:52:59;93431.38;;;5.55;100.00
38400;BME280;24180;42.676;23.320;2023-04-04T06:55:26;93438.19;;;5.47;100.00
38400;BME280;24180;42.676;23.320;2023-04-04T06:57:52;93441.09;;;5.34;100.00
38400;BME280;24180;42.676;23.320;2023-04-04T07:00:17;93447.84;;;5.17;100.00
38400;BME280;24180;42.676;23.320;2023-04-04T07:02:43;93422.75;;;4.75;100.00
38400;BME280;24180;42.676;23.320;2023-04-04T07:05:08;93434.41;;;4.69;100.00
38400;BME280;24180;42.676;23.320;2023-04-04T07:07:34;93474.84;;;4.85;100.00
38400;BME280;24180;42.676;23.320;2023-04-04T07:10:00;93490.94;;;4.67;100.00
38400;BME280;24180;42.676;23.320;2023-04-04T07:12:25;93466.75;;;4.33;100.00
38400;BME280;24180;42.676;23.320;2023-04-04T07:14:51;93468.09;;;4.37;100.00
38400;BME280;24180;42.676;23.320;2023-04-04T07:17:16;93503.31;;;4.82;100.00
38400;BME280;24180;42.676;23.320;2023-04-04T07:19:42;93511.59;;;5.03;100.00
38400;BME280;24180;42.676;23.320;2023-04-04T07:22:07;93527.00;;;5.03;100.00
38400;BME280;24180;42.676;23.320;2023-04-04T07:24:32;93522.19;;;4.90;100.00
38400;BME280;24180;42.676;23.320;2023-04-04T07:26:58;93524.09;;;4.79;100.00
38400;BME280;24180;42.676;23.320;2023-04-04T07:29:23;93538.97;;;4.75;100.00
38400;BME280;24180;42.676;23.320;2023-04-04T07:31:49;93550.84;;;4.66;100.00
38400;BME280;24180;42.676;23.320;2023-04-04T07:34:15;93520.69;;;4.41;100.00
38400;BME280;24180;42.676;23.320;2023-04-04T07:36:40;93524.59;;;4.45;100.00
38400;BME280;24180;42.676;23.320;2023-04-04T07:39:06;93513.13;;;4.40;100.00
38400;BME280;24180;42.676;23.320;2023-04-04T07:41:32;93530.66;;;4.44;100.00
38400;BME280;24180;42.676;23.320;2023-04-04T07:43:57;93562.47;;;4.51;100.00
38400;BME280;24180;42.676;23.320;2023-04-04T07:46:23;93577.72;;;4.43;100.00
38400;BME280;24180;42.676;23.320;2023-04-04T07:48:48;93511.91;;;3.86;100.00
38400;BME280;24180;42.676;23.320;2023-04-04T07:51:14;93577.03;;;4.22;100.00
38400;BME280;24180;42.676;23.320;2023-04-04T07:53:40;93548.31;;;4.28;100.00
38400;BME280;24180;42.676;23.320;2023-04-04T07:56:05;93496.97;;;4.01;100.00
38400;BME280;24180;42.676;23.320;2023-04-04T07:58:34;93553.31;;;4.49;100.00
38400;BME280;24180;42.676;23.320;2023-04-04T08:01:01;93580.00;;;4.46;100.00
38400;BME280;24180;42.676;23.320;2023-04-04T08:03:26;93590.25;;;4.56;100.00
38400;BME280;24180;42.676;23.320;2023-04-04T08:05:52;93564.09;;;4.52;100.00
38400;BME280;24180;42.676;23.320;2023-04-04T08:08:17;93591.34;;;4.72;100.00
38400;BME280;24180;42.676;23.320;2023-04-04T08:10:44;93571.66;;;4.35;100.00
38400;BME280;24180;42.676;23.320;2023-04-04T08:13:10;93558.56;;;4.28;100.00
38400;BME280;24180;42.676;23.320;2023-04-04T08:15:36;93566.25;;;4.18;100.00
38400;BME280;24180;42.676;23.320;2023-04-04T08:18:01;93610.44;;;3.92;100.00
38400;BME280;24180;42.676;23.320;2023-04-04T08:20:26;93631.19;;;3.89;100.00
38400;BME280;24180;42.676;23.320;2023-04-04T08:22:52;93606.91;;;3.83;100.00
38400;BME280;24180;42.676;23.320;2023-04-04T08:25:18;93620.72;;;4.11;100.00
38400;BME280;24180;42.676;23.320;2023-04-04T08:27:44;93616.81;;;4.16;100.00
38400;BME280;24180;42.676;23.320;2023-04-04T08:30:11;93589.97;;;4.11;100.00
38400;BME280;24180;42.676;23.320;2023-04-04T08:32:37;93632.34;;;4.24;100.00
38400;BME280;24180;42.676;23.320;2023-04-04T08:35:02;93637.47;;;4.34;100.00
38400;BME280;24180;42.676;23.320;2023-04-04T08:37:29;93636.53;;;4.35;100.00
38400;BME280;24180;42.676;23.320;2023-04-04T08:39:55;93633.41;;;4.32;100.00
38400;BME280;24180;42.676;23.320;2023-04-04T08:42:21;93653.22;;;4.20;100.00
38400;BME280;24180;42.676;23.320;2023-04-04T08:44:49;93639.31;;;4.03;100.00
38400;BME280;24180;42.676;23.320;2023-04-04T08:47:17;93653.38;;;3.78;100.00
38400;BME280;24180;42.676;23.320;2023-04-04T08:49:45;93629.59;;;3.57;100.00
38400;BME280;24180;42.676;23.320;2023-04-04T08:52:14;93640.78;;;3.56;100.00
38400;BME280;24180;42.676;23.320;2023-04-04T08:54:43;93664.28;;;3.71;100.00
38400;BME280;24180;42.676;23.320;2023-04-04T08:57:09;93674.41;;;3.72;100.00
38400;BME280;24180;42.676;23.320;2023-04-04T08:59:34;93665.16;;;3.91;100.00
38400;BME280;24180;42.676;23.320;2023-04-04T09:02:23;93662.19;;;3.95;100.00
38400;BME280;24180;42.676;23.320;2023-04-04T09:04:51;93666.78;;;3.92;100.00
38400;BME280;24180;42.676;23.320;2023-04-04T09:07:17;93636.47;;;3.57;100.00
38400;BME280;24180;42.676;23.320;2023-04-04T09:09:43;93641.72;;;3.55;100.00
38400;BME280;24180;42.676;23.320;2023-04-04T09:12:12;93667.47;;;3.63;100.00
38400;BME280;24180;42.676;23.320;2023-04-04T09:14:38;93678.06;;;3.80;100.00
38400;BME280;24180;42.676;23.320;2023-04-04T09:17:05;93655.56;;;3.83;100.00
38400;BME280;24180;42.676;23.320;2023-04-04T09:19:32;93658.44;;;3.99;100.00
38400;BME280;24180;42.676;23.320;2023-04-04T09:21:58;93641.47;;;4.08;100.00
38400;BME280;24180;42.676;23.320;2023-04-04T09:24:23;93680.63;;;4.39;100.00
38400;BME280;24180;42.676;23.320;2023-04-04T09:26:50;93676.03;;;4.42;100.00
38400;BME280;24180;42.676;23.320;2023-04-04T09:29:17;93678.75;;;4.50;100.00
38400;BME280;24180;42.676;23.320;2023-04-04T09:31:44;93682.50;;;4.27;100.00
38400;BME280;24180;42.676;23.320;2023-04-04T09:34:12;93686.13;;;4.15;100.00
38400;BME280;24180;42.676;23.320;2023-04-04T09:36:39;93663.94;;;3.85;100.00
38400;BME280;24180;42.676;23.320;2023-04-04T09:39:05;93681.06;;;3.94;100.00
38400;BME280;24180;42.676;23.320;2023-04-04T09:41:31;93702.63;;;4.01;100.00
38400;BME280;24180;42.676;23.320;2023-04-04T09:43:56;93706.72;;;4.04;100.00
38400;BME280;24180;42.676;23.320;2023-04-04T09:46:22;93692.13;;;3.95;100.00
38400;BME280;24180;42.676;23.320;2023-04-04T09:48:48;93693.75;;;3.96;100.00
38400;BME280;24180;42.676;23.320;2023-04-04T09:51:17;93679.41;;;3.84;100.00
38400;BME280;24180;42.676;23.320;2023-04-04T09:53:46;93704.28;;;4.02;100.00
38400;BME280;24180;42.676;23.320;2023-04-04T09:56:13;93700.50;;;4.06;100.00
38400;BME280;24180;42.676;23.320;2023-04-04T09:58:39;93704.47;;;4.20;100.00
38400;BME280;24180;42.676;23.320;2023-04-04T10:01:08;93698.13;;;4.24;100.00
38400;BME280;24180;42.676;23.320;2023-04-04T10:03:35;93696.94;;;4.28;100.00
38400;BME280;24180;42.676;23.320;2023-04-04T10:06:04;93673.06;;;4.28;100.00
38400;BME280;24180;42.676;23.320;2023-04-04T10:08:31;93667.81;;;4.39;100.00
38400;BME280;24180;42.676;23.320;2023-04-04T10:11:01;93694.00;;;4.52;100.00
38400;BME280;24180;42.676;23.320;2023-04-04T10:13:32;93711.16;;;4.61;100.00
38400;BME280;24180;42.676;23.320;2023-04-04T10:16:01;93708.31;;;4.64;100.00
38400;BME280;24180;42.676;23.320;2023-04-04T10:18:31;93698.28;;;4.42;100.00
38400;BME280;24180;42.676;23.320;2023-04-04T10:21:00;93718.56;;;4.54;100.00
38400;BME280;24180;42.676;23.320;2023-04-04T10:23:27;93714.13;;;4.66;100.00
38400;BME280;24180;42.676;23.320;2023-04-04T10:25:53;93728.16;;;4.91;100.00
38400;BME280;24180;42.676;23.320;2023-04-04T10:28:20;93707.50;;;4.63;100.00
38400;BME280;24180;42.676;23.320;2023-04-04T10:36:06;93751.91;;;4.14;100.00
38400;BME280;24180;42.676;23.320;2023-04-04T10:38:39;93739.16;;;3.94;100.00
38400;BME280;24180;42.676;23.320;2023-04-04T10:41:06;93752.97;;;4.12;100.00
38400;BME280;24180;42.676;23.320;2023-04-04T10:43:33;93733.84;;;3.86;100.00
38400;BME280;24180;42.676;23.320;2023-04-04T10:46:06;93765.19;;;3.99;100.00
38400;BME280;24180;42.676;23.320;2023-04-04T10:48:32;93724.22;;;3.99;100.00
38400;BME280;24180;42.676;23.320;2023-04-04T10:50:58;93759.09;;;4.30;100.00
38400;BME280;24180;42.676;23.320;2023-04-04T10:53:25;93737.72;;;4.10;100.00
38400;BME280;24180;42.676;23.320;2023-04-04T10:55:51;93751.25;;;4.22;100.00
38400;BME280;24180;42.676;23.320;2023-04-04T10:58:17;93760.84;;;4.30;100.00
38400;BME280;24180;42.676;23.320;2023-04-04T11:00:50;93770.25;;;4.59;100.00
38400;BME280;24180;42.676;23.320;2023-04-04T11:03:17;93734.47;;;4.48;100.00
38400;BME280;24180;42.676;23.320;2023-04-04T11:05:42;93733.47;;;4.30;100.00
38400;BME280;24180;42.676;23.320;2023-04-04T11:08:24;93739.41;;;4.31;100.00
38400;BME280;24180;42.676;23.320;2023-04-04T11:10:51;93775.31;;;4.40;100.00
38400;BME280;24180;42.676;23.320;2023-04-04T11:13:31;93786.44;;;4.20;100.00
38400;BME280;24180;42.676;23.320;2023-04-04T11:16:06;93773.81;;;4.28;100.00
38400;BME280;24180;42.676;23.320;2023-04-04T11:21:06;93785.25;;;4.24;100.00
38400;BME280;24180;42.676;23.320;2023-04-04T11:29:01;93777.41;;;4.16;100.00
38400;BME280;24180;42.676;23.320;2023-04-04T11:31:44;93794.25;;;4.18;100.00
38400;BME280;24180;42.676;23.320;2023-04-04T11:34:14;93795.09;;;3.98;100.00
38400;BME280;24180;42.676;23.320;2023-04-04T11:39:29;93756.84;;;3.97;100.00
38400;BME280;24180;42.676;23.320;2023-04-04T11:42:13;93793.09;;;4.32;100.00
38400;BME280;24180;42.676;23.320;2023-04-04T11:47:24;93798.56;;;4.18;100.00
38400;BME280;24180;42.676;23.320;2023-04-04T11:49:52;93755.72;;;3.90;100.00
38400;BME280;24180;42.676;23.320;2023-04-04T11:52:18;93793.59;;;4.16;100.00
38400;BME280;24180;42.676;23.320;2023-04-04T11:54:45;93785.19;;;4.05;100.00
38400;BME280;24180;42.676;23.320;2023-04-04T11:57:12;93760.06;;;3.99;100.00
38400;BME280;24180;42.676;23.320;2023-04-04T11:59:40;93770.38;;;4.08;100.00
38400;BME280;24180;42.676;23.320;2023-04-04T12:02:08;93766.06;;;4.18;100.00
38400;BME280;24180;42.676;23.320;2023-04-04T12:04:35;93795.19;;;4.17;100.00
38400;BME280;24180;42.676;23.320;2023-04-04T12:07:01;93801.81;;;4.20;100.00
38400;BME280;24180;42.676;23.320;2023-04-04T12:09:28;93796.53;;;4.12;100.00
38400;BME280;24180;42.676;23.320;2023-04-04T12:11:55;93764.09;;;3.92;100.00
38400;BME280;24180;42.676;23.320;2023-04-04T12:14:22;93795.59;;;4.13;100.00
38400;BME280;24180;42.676;23.320;2023-04-04T12:16:49;93761.19;;;3.75;100.00
38400;BME280;24180;42.676;23.320;2023-04-04T12:19:16;93804.22;;;4.12;100.00
38400;BME280;24180;42.676;23.320;2023-04-04T12:21:43;93782.94;;;3.91;100.00
38400;BME280;24180;42.676;23.320;2023-04-04T12:24:09;93806.91;;;3.90;100.00
38400;BME280;24180;42.676;23.320;2023-04-04T12:26:36;93775.72;;;3.75;100.00
38400;BME280;24180;42.676;23.320;2023-04-04T12:29:03;93804.81;;;3.95;100.00
38400;BME280;24180;42.676;23.320;2023-04-04T12:31:30;93797.69;;;3.77;100.00
38400;BME280;24180;42.676;23.320;2023-04-04T12:33:56;93810.84;;;3.94;100.00
38400;BME280;24180;42.676;23.320;2023-04-04T12:36:28;93806.53;;;3.64;100.00
38400;BME280;24180;42.676;23.320;2023-04-04T12:39:07;93809.72;;;3.56;100.00
38400;BME280;24180;42.676;23.320;2023-04-04T12:41:33;93803.97;;;3.64;100.00
38400;BME280;24180;42.676;23.320;2023-04-04T12:44:04;93807.06;;;3.67;100.00
38400;BME280;24180;42.676;23.320;2023-04-04T12:46:40;93791.44;;;3.29;100.00
38400;BME280;24180;42.676;23.320;2023-04-04T12:49:08;93775.78;;;3.22;100.00
38400;BME280;24180;42.676;23.320;2023-04-04T12:51:35;93815.91;;;3.22;100.00
38400;BME280;24180;42.676;23.320;2023-04-04T12:54:03;93808.72;;;3.16;100.00
38400;BME280;24180;42.676;23.320;2023-04-04T12:56:30;93823.00;;;3.18;100.00
38400;BME280;24180;42.676;23.320;2023-04-04T12:59:03;93823.53;;;3.33;100.00
38400;BME280;24180;42.676;23.320;2023-04-04T13:01:30;93800.56;;;3.22;100.00
38400;BME280;24180;42.676;23.320;2023-04-04T13:04:00;93798.00;;;3.22;100.00
38400;BME280;24180;42.676;23.320;2023-04-04T13:06:28;93791.59;;;2.96;100.00
38400;BME280;24180;42.676;23.320;2023-04-04T13:08:54;93836.19;;;3.03;100.00